createdAt,value
2019-02-04T00:01:43.115Z,0.56
2019-02-04T00:04:14.144Z,0.55
2019-02-04T00:06:45.118Z,0.54
2019-02-04T00:09:16.106Z,0.52
2019-02-04T00:11:47.064Z,0.53
2019-02-04T00:14:17.999Z,0.54
2019-02-04T00:16:49.002Z,0.56
2019-02-04T00:19:19.859Z,0.57
2019-02-04T00:21:50.759Z,0.56
2019-02-04T00:24:21.711Z,0.55
2019-02-04T00:26:52.548Z,0.56
2019-02-04T00:29:23.435Z,0.55
2019-02-04T00:31:54.381Z,0.54
2019-02-04T00:34:25.557Z,0.55
2019-02-04T00:36:56.590Z,0.56
2019-02-04T00:39:27.434Z,0.51
2019-02-04T00:41:58.420Z,0.52
2019-02-04T00:44:29.277Z,0.48
2019-02-04T00:47:00.305Z,0.47
2019-02-04T00:49:31.313Z,0.45
2019-02-04T00:52:02.552Z,0.43
2019-02-04T00:54:33.533Z,0.45
2019-02-04T00:57:04.580Z,0.47
2019-02-04T00:59:35.452Z,0.47
2019-02-04T01:02:06.493Z,0.48
2019-02-04T01:04:37.749Z,0.46
2019-02-04T01:07:09.306Z,0.44
2019-02-04T01:09:40.354Z,0.41
2019-02-04T01:12:11.295Z,0.39
2019-02-04T01:14:42.236Z,0.31
2019-02-04T01:17:13.593Z,0.25
2019-02-04T01:19:44.547Z,0.19
2019-02-04T01:22:15.427Z,0.17
2019-02-04T01:24:48.224Z,0.11
2019-02-04T01:27:19.377Z,-0.01
2019-02-04T01:29:50.867Z,-0.12
2019-02-04T01:32:21.822Z,-0.20
2019-02-04T01:34:52.711Z,-0.28
2019-02-04T01:37:23.748Z,-0.35
2019-02-04T01:39:54.874Z,-0.40
2019-02-04T01:42:25.907Z,-0.44
2019-02-04T01:44:56.881Z,-0.52
2019-02-04T01:47:27.899Z,-0.65
2019-02-04T01:49:58.876Z,-0.85
2019-02-04T01:52:29.833Z,-1.00
2019-02-04T01:55:01.087Z,-1.13
2019-02-04T01:57:32.233Z,-1.19
2019-02-04T02:00:03.766Z,-1.16
2019-02-04T02:02:34.637Z,-1.10
2019-02-04T02:05:06.659Z,-1.15
2019-02-04T02:07:37.648Z,-1.24
2019-02-04T02:10:11.528Z,-1.25
2019-02-04T02:12:42.586Z,-1.25
2019-02-04T02:15:13.603Z,-1.23
2019-02-04T02:17:44.625Z,-1.25
2019-02-04T02:20:24.644Z,-1.34
2019-02-04T02:22:55.744Z,-1.42
2019-02-04T02:25:26.778Z,-1.42
2019-02-04T02:27:57.785Z,-1.47
2019-02-04T02:30:31.020Z,-1.48
2019-02-04T02:33:01.980Z,-1.48
2019-02-04T02:35:33.025Z,-1.50
2019-02-04T02:38:04.131Z,-1.57
2019-02-04T02:40:35.457Z,-1.59
2019-02-04T02:43:06.477Z,-1.57
2019-02-04T02:45:37.387Z,-1.49
2019-02-04T02:48:08.541Z,-1.49
2019-02-04T02:50:39.560Z,-1.57
2019-02-04T02:53:10.605Z,-1.70
2019-02-04T02:55:41.827Z,-1.84
2019-02-04T02:58:12.812Z,-2.03
2019-02-04T03:00:43.863Z,-2.20
2019-02-04T03:03:14.814Z,-2.34
2019-02-04T03:05:45.758Z,-2.43
2019-02-04T03:08:17.051Z,-2.39
2019-02-04T03:10:48.082Z,-2.41
2019-02-04T03:13:19.055Z,-2.33
2019-02-04T03:15:50.074Z,-2.41
2019-02-04T03:18:21.032Z,-2.47
2019-02-04T03:20:52.180Z,-2.51
2019-02-04T03:23:23.153Z,-2.51
2019-02-04T03:25:54.180Z,-2.45
2019-02-04T03:28:25.077Z,-2.27
2019-02-04T03:30:58.502Z,-2.09
2019-02-04T03:33:29.660Z,-2.04
2019-02-04T03:36:00.546Z,-2.10
2019-02-04T03:38:31.586Z,-2.20
2019-02-04T03:41:02.634Z,-2.28
2019-02-04T03:43:33.586Z,-2.28
2019-02-04T03:46:05.179Z,-2.26
2019-02-04T03:48:36.100Z,-2.25
2019-02-04T03:51:07.121Z,-2.23
2019-02-04T03:53:41.624Z,-2.35
2019-02-04T03:56:12.498Z,-2.46
2019-02-04T03:58:43.498Z,-2.57
2019-02-04T04:01:14.444Z,-2.67
2019-02-04T04:03:45.558Z,-2.72
2019-02-04T04:06:16.605Z,-2.74
2019-02-04T04:08:47.556Z,-2.71
2019-02-04T04:11:18.690Z,-2.64
2019-02-04T04:13:49.799Z,-2.65
2019-02-04T04:16:20.841Z,-2.72
2019-02-04T04:18:53.454Z,-2.85
2019-02-04T04:21:29.981Z,-2.93
2019-02-04T04:24:00.856Z,-2.95
2019-02-04T04:26:31.884Z,-2.97
2019-02-04T04:29:02.847Z,-3.05
2019-02-04T04:31:33.742Z,-3.15
2019-02-04T04:34:05.275Z,-3.22
2019-02-04T04:36:36.301Z,-3.30
2019-02-04T04:39:07.751Z,-3.32
2019-02-04T04:41:38.652Z,-3.36
2019-02-04T04:44:09.534Z,-3.38
2019-02-04T04:46:40.843Z,-3.43
2019-02-04T04:49:11.776Z,-3.51
2019-02-04T04:51:42.813Z,-3.59
2019-02-04T04:54:13.754Z,-3.62
2019-02-04T04:56:44.814Z,-3.71
2019-02-04T04:59:15.996Z,-3.83
2019-02-04T05:01:47.064Z,-3.93
2019-02-04T05:04:17.997Z,-3.88
2019-02-04T05:06:49.094Z,-3.90
2019-02-04T05:09:20.072Z,-3.93
2019-02-04T05:11:51.088Z,-4.06
2019-02-04T05:14:22.053Z,-4.21
2019-02-04T05:16:53.196Z,-4.26
2019-02-04T05:19:24.262Z,-4.11
2019-02-04T05:21:55.503Z,-4.04
2019-02-04T05:24:26.638Z,-4.08
2019-02-04T05:26:57.610Z,-4.18
2019-02-04T05:29:28.496Z,-4.29
2019-02-04T05:31:59.571Z,-4.39
2019-02-04T05:34:30.506Z,-4.39
2019-02-04T05:37:01.449Z,-4.28
2019-02-04T05:39:32.398Z,-4.10
2019-02-04T05:42:03.489Z,-4.05
2019-02-04T05:44:34.448Z,-4.22
2019-02-04T05:47:05.730Z,-4.20
2019-02-04T05:49:36.781Z,-4.10
2019-02-04T05:52:11.385Z,-4.08
2019-02-04T05:54:42.296Z,-4.09
2019-02-04T05:57:13.315Z,-4.22
2019-02-04T05:59:44.197Z,-4.25
2019-02-04T06:02:15.717Z,-4.29
2019-02-04T06:04:46.769Z,-4.39
2019-02-04T06:07:17.688Z,-4.46
2019-02-04T06:09:48.681Z,-4.48
2019-02-04T06:12:20.299Z,-4.50
2019-02-04T06:14:51.491Z,-4.54
2019-02-04T06:17:22.589Z,-4.51
2019-02-04T06:19:53.525Z,-4.47
2019-02-04T06:22:24.536Z,-4.46
2019-02-04T06:24:55.695Z,-4.47
2019-02-04T06:27:27.133Z,-4.50
2019-02-04T06:29:58.038Z,-4.50
2019-02-04T06:32:29.113Z,-4.37
2019-02-04T06:35:00.199Z,-4.35
2019-02-04T06:37:31.167Z,-4.35
2019-02-04T06:40:02.107Z,-4.34
2019-02-04T06:42:38.377Z,-4.32
2019-02-04T06:45:11.911Z,-4.41
2019-02-04T06:47:43.449Z,-4.47
2019-02-04T06:50:16.493Z,-4.46
2019-02-04T06:52:54.811Z,-4.47
2019-02-04T06:55:30.957Z,-4.49
2019-02-04T06:58:01.939Z,-4.52
2019-02-04T07:00:32.891Z,-4.49
2019-02-04T07:03:04.439Z,-4.39
2019-02-04T07:05:43.578Z,-4.20
2019-02-04T07:08:08.567Z,-3.95
2019-02-04T07:10:39.633Z,-3.78
2019-02-04T07:13:10.603Z,-3.68
2019-02-04T07:15:41.933Z,-3.63
2019-02-04T07:18:12.920Z,-3.34
2019-02-04T07:20:43.945Z,-3.15
2019-02-04T07:23:15.057Z,-3.02
2019-02-04T07:25:46.056Z,-2.96
2019-02-04T07:28:17.493Z,-2.80
2019-02-04T07:30:48.385Z,-2.66
2019-02-04T07:33:19.513Z,-2.31
2019-02-04T07:35:50.574Z,-2.18
2019-02-04T07:38:21.632Z,-2.07
2019-02-04T07:40:52.689Z,-1.82
2019-02-04T07:43:23.674Z,-1.57
2019-02-04T07:45:54.639Z,-1.41
2019-02-04T07:48:25.558Z,-1.20
2019-02-04T07:50:56.581Z,-1.04
2019-02-04T07:53:27.523Z,-0.95
2019-02-04T07:55:58.503Z,-0.78
2019-02-04T07:58:29.389Z,-0.79
2019-02-04T08:01:00.441Z,-0.77
2019-02-04T08:03:33.540Z,-0.53
2019-02-04T08:06:08.966Z,-0.43
2019-02-04T08:08:40.012Z,-0.12
2019-02-04T08:11:10.981Z,0.26
2019-02-04T08:13:42.026Z,0.28
2019-02-04T08:16:13.009Z,0.49
2019-02-04T08:18:43.924Z,0.79
2019-02-04T08:21:15.094Z,1.23
2019-02-04T08:23:45.967Z,1.31
2019-02-04T08:26:16.981Z,1.39
2019-02-04T08:28:47.994Z,1.51
2019-02-04T08:31:19.036Z,1.64
2019-02-04T08:33:49.966Z,1.80
2019-02-04T08:36:20.851Z,2.24
2019-02-04T08:38:51.796Z,2.21
2019-02-04T08:41:22.770Z,2.43
2019-02-04T08:43:53.821Z,2.44
2019-02-04T08:46:24.895Z,2.51
2019-02-04T08:48:55.823Z,2.87
2019-02-04T08:51:26.859Z,3.39
2019-02-04T08:53:57.804Z,3.37
2019-02-04T08:56:28.856Z,3.70
2019-02-04T08:58:59.701Z,4.01
2019-02-04T09:01:30.884Z,3.94
2019-02-04T09:04:01.882Z,3.53
2019-02-04T09:06:32.827Z,3.56
2019-02-04T09:09:05.206Z,3.74
2019-02-04T09:11:36.228Z,4.31
2019-02-04T09:14:07.253Z,4.56
2019-02-04T09:16:38.209Z,4.42
2019-02-04T09:19:09.374Z,4.66
2019-02-04T09:21:40.421Z,5.17
2019-02-04T09:24:11.292Z,5.35
2019-02-04T09:26:42.531Z,5.81
2019-02-04T09:29:13.399Z,6.36
2019-02-04T09:31:44.314Z,6.80
2019-02-04T09:34:15.260Z,7.18
2019-02-04T09:36:46.206Z,6.88
2019-02-04T09:39:17.087Z,7.26
2019-02-04T09:41:48.053Z,6.96
2019-02-04T09:44:19.181Z,7.13
2019-02-04T09:46:50.133Z,7.36
2019-02-04T09:49:21.151Z,7.27
2019-02-04T09:51:52.165Z,7.62
2019-02-04T09:54:23.277Z,7.80
2019-02-04T09:56:54.279Z,7.53
2019-02-04T09:59:25.207Z,8.37
2019-02-04T10:01:56.245Z,8.32
2019-02-04T10:04:39.049Z,7.87
2019-02-04T10:07:05.756Z,8.33
2019-02-04T10:09:36.683Z,8.60
2019-02-04T10:12:07.649Z,8.77
2019-02-04T10:14:40.635Z,8.71
2019-02-04T10:17:11.943Z,8.59
2019-02-04T10:19:42.960Z,8.84
2019-02-04T10:22:13.990Z,9.31
2019-02-04T10:24:44.902Z,10.17
2019-02-04T10:27:15.842Z,10.12
2019-02-04T10:29:47.076Z,9.68
2019-02-04T10:32:18.117Z,9.04
2019-02-04T10:34:50.479Z,9.39
2019-02-04T10:37:21.620Z,9.55
2019-02-04T10:39:52.518Z,10.14
2019-02-04T10:42:23.956Z,10.38
2019-02-04T10:44:55.067Z,11.12
2019-02-04T10:47:26.212Z,11.48
2019-02-04T10:49:57.143Z,10.73
2019-02-04T10:52:28.112Z,10.42
2019-02-04T10:54:59.105Z,9.83
2019-02-04T10:57:40.311Z,9.62
2019-02-04T11:00:02.857Z,10.03
2019-02-04T11:02:33.919Z,10.53
2019-02-04T11:05:08.069Z,11.73
2019-02-04T11:07:39.308Z,12.30
2019-02-04T11:10:13.287Z,11.79
2019-02-04T11:12:44.284Z,11.34
2019-02-04T11:15:17.754Z,11.69
2019-02-04T11:17:48.768Z,12.53
2019-02-04T11:20:32.107Z,12.20
2019-02-04T11:23:03.099Z,13.22
2019-02-04T11:25:34.230Z,11.69
2019-02-04T11:28:06.906Z,10.92
2019-02-04T11:30:41.083Z,10.20
2019-02-04T11:33:12.233Z,10.93
2019-02-04T11:35:43.410Z,11.40
2019-02-04T11:38:14.483Z,11.34
2019-02-04T11:40:45.989Z,10.96
2019-02-04T11:43:17.699Z,11.29
2019-02-04T11:45:48.902Z,11.18
2019-02-04T11:48:20.352Z,11.73
2019-02-04T11:50:51.498Z,12.14
2019-02-04T11:53:32.279Z,12.39
2019-02-04T11:55:55.378Z,11.98
2019-02-04T11:58:26.416Z,11.66
2019-02-04T12:00:57.449Z,11.74
2019-02-04T12:03:28.504Z,11.28
2019-02-04T12:05:59.441Z,11.56
2019-02-04T12:08:30.729Z,10.91
2019-02-04T12:11:04.175Z,10.34
2019-02-04T12:13:35.170Z,9.51
2019-02-04T12:16:06.124Z,9.56
2019-02-04T12:18:37.080Z,9.56
2019-02-04T12:21:08.304Z,10.05
2019-02-04T12:23:39.317Z,10.88
2019-02-04T12:26:10.554Z,11.08
2019-02-04T12:28:41.503Z,11.55
2019-02-04T12:31:12.625Z,11.67
2019-02-04T12:33:43.740Z,11.53
2019-02-04T12:36:14.663Z,11.51
2019-02-04T12:38:45.642Z,10.15
2019-02-04T12:41:16.653Z,10.61
2019-02-04T12:43:47.679Z,9.84
2019-02-04T12:46:19.039Z,9.60
2019-02-04T12:48:49.936Z,11.35
2019-02-04T12:51:32.912Z,12.21
2019-02-04T12:53:53.932Z,10.73
2019-02-04T12:56:24.972Z,10.51
2019-02-04T12:58:56.286Z,10.88
2019-02-04T13:01:27.242Z,10.42
2019-02-04T13:03:58.209Z,9.12
2019-02-04T13:06:29.235Z,9.55
2019-02-04T13:09:00.119Z,10.10
2019-02-04T13:11:31.165Z,10.21
2019-02-04T13:14:02.588Z,10.76
2019-02-04T13:16:33.569Z,12.27
2019-02-04T13:19:04.514Z,11.72
2019-02-04T13:21:45.036Z,11.71
2019-02-04T13:24:08.203Z,10.68
2019-02-04T13:26:39.231Z,8.31
2019-02-04T13:29:10.258Z,6.65
2019-02-04T13:31:41.294Z,6.82
2019-02-04T13:34:12.226Z,8.75
2019-02-04T13:36:43.453Z,9.87
2019-02-04T13:39:14.354Z,10.96
2019-02-04T13:41:45.363Z,9.69
2019-02-04T13:44:16.412Z,9.34
2019-02-04T13:46:47.351Z,8.85
2019-02-04T13:49:18.630Z,8.90
2019-02-04T13:51:57.048Z,9.33
2019-02-04T13:54:22.242Z,9.67
2019-02-04T13:56:53.187Z,8.89
2019-02-04T13:59:24.230Z,8.49
2019-02-04T14:01:55.210Z,8.01
2019-02-04T14:04:27.712Z,7.54
2019-02-04T14:06:58.623Z,7.62
2019-02-04T14:09:29.764Z,7.13
2019-02-04T14:12:00.841Z,7.54
2019-02-04T14:14:32.177Z,7.56
2019-02-04T14:17:03.158Z,7.97
2019-02-04T14:19:34.146Z,7.82
2019-02-04T14:22:09.342Z,7.94
2019-02-04T14:24:39.606Z,8.01
2019-02-04T14:27:11.083Z,8.36
2019-02-04T14:30:02.791Z,7.98
2019-02-04T14:32:34.081Z,7.64
2019-02-04T14:35:06.385Z,7.61
2019-02-04T14:37:46.433Z,6.96
2019-02-04T14:40:22.007Z,7.40
2019-02-04T14:42:56.035Z,7.21
2019-02-04T14:45:34.907Z,7.42
2019-02-04T14:48:28.517Z,7.51
2019-02-04T14:51:18.996Z,7.72
2019-02-04T14:54:09.277Z,8.59
2019-02-04T14:56:52.590Z,7.83
2019-02-04T14:59:30.312Z,7.40
2019-02-04T15:02:56.583Z,7.33
2019-02-04T15:05:38.459Z,6.71
2019-02-04T15:08:42.580Z,5.67
2019-02-04T15:11:16.528Z,4.99
2019-02-04T15:13:53.470Z,4.57
2019-02-04T15:16:30.127Z,4.38
2019-02-04T15:19:20.893Z,4.18
2019-02-04T15:22:09.647Z,3.76
2019-02-04T15:25:17.162Z,3.69
2019-02-04T15:28:06.870Z,3.99
2019-02-04T15:30:40.882Z,4.07
2019-02-04T15:33:23.251Z,4.37
2019-02-04T15:36:15.171Z,4.66
2019-02-04T15:39:00.863Z,5.04
2019-02-04T15:41:37.606Z,5.17
2019-02-04T15:44:35.518Z,4.70
2019-02-04T15:47:12.629Z,3.98
2019-02-04T15:50:07.154Z,3.33
2019-02-04T15:52:45.053Z,3.03
2019-02-04T15:55:14.143Z,2.63
2019-02-04T15:57:45.125Z,2.36
2019-02-04T16:00:17.219Z,2.14
2019-02-04T16:02:48.253Z,1.86
2019-02-04T16:05:19.366Z,1.65
2019-02-04T16:07:50.317Z,1.48
2019-02-04T16:10:24.073Z,1.32
2019-02-04T16:12:54.136Z,1.16
2019-02-04T16:15:25.580Z,1.03
2019-02-04T16:17:56.750Z,0.91
2019-02-04T16:20:27.771Z,0.86
2019-02-04T16:22:59.122Z,0.70
2019-02-04T16:25:30.268Z,0.59
2019-02-04T16:28:03.500Z,0.49
2019-02-04T16:30:34.580Z,0.42
2019-02-04T16:33:05.916Z,0.34
2019-02-04T16:35:36.893Z,0.24
2019-02-04T16:38:07.998Z,0.14
2019-02-04T16:40:39.007Z,0.03
2019-02-04T16:43:10.102Z,-0.13
2019-02-04T16:45:41.111Z,-0.18
2019-02-04T16:48:12.095Z,-0.32
2019-02-04T16:50:57.388Z,-0.45
2019-02-04T16:53:17.280Z,-0.57
2019-02-04T16:55:48.217Z,-0.71
2019-02-04T16:58:19.190Z,-0.74
2019-02-04T17:00:50.217Z,-0.60
2019-02-04T17:03:21.274Z,-0.63
2019-02-04T17:05:52.640Z,-0.80
2019-02-04T17:08:23.654Z,-0.92
2019-02-04T17:10:54.808Z,-1.05
2019-02-04T17:13:25.835Z,-1.12
2019-02-04T17:15:57.020Z,-1.17
2019-02-04T17:18:28.021Z,-1.22
2019-02-04T17:20:59.363Z,-1.29
2019-02-04T17:23:30.732Z,-1.29
2019-02-04T17:26:01.700Z,-1.28
2019-02-04T17:28:32.716Z,-1.27
2019-02-04T17:31:05.207Z,-1.19
2019-02-04T17:33:39.256Z,-1.20
2019-02-04T17:36:11.927Z,-1.11
2019-02-04T17:38:42.866Z,-1.03
2019-02-04T17:41:13.964Z,-0.96
2019-02-04T17:43:44.984Z,-0.96
2019-02-04T17:46:16.226Z,-0.98
2019-02-04T17:48:47.412Z,-1.01
2019-02-04T17:51:18.568Z,-1.15
2019-02-04T17:53:49.524Z,-1.26
2019-02-04T17:56:20.610Z,-1.39
2019-02-04T17:58:51.624Z,-1.54
2019-02-04T18:01:22.960Z,-1.64
2019-02-04T18:03:54.115Z,-1.69
2019-02-04T18:06:25.122Z,-1.68
2019-02-04T18:08:56.020Z,-1.64
2019-02-04T18:11:27.136Z,-1.62
2019-02-04T18:14:00.052Z,-1.65
2019-02-04T18:16:31.076Z,-1.72
2019-02-04T18:19:02.044Z,-1.77
2019-02-04T18:21:32.960Z,-1.76
2019-02-04T18:24:04.022Z,-1.79
2019-02-04T18:26:35.121Z,-1.86
2019-02-04T18:29:06.222Z,-1.92
2019-02-04T18:31:37.259Z,-1.98
2019-02-04T18:34:09.951Z,-2.01
2019-02-04T18:37:00.892Z,-2.04
2019-02-04T18:39:43.166Z,-2.03
2019-02-04T18:42:14.162Z,-2.08
2019-02-04T18:44:45.434Z,-2.15
2019-02-04T18:47:16.474Z,-2.18
2019-02-04T18:49:47.513Z,-2.14
2019-02-04T18:52:18.572Z,-2.08
2019-02-04T18:54:49.560Z,-2.04
2019-02-04T18:57:20.832Z,-2.04
2019-02-04T18:59:59.507Z,-1.97
2019-02-04T19:02:30.452Z,-1.99
2019-02-04T19:05:01.407Z,-1.94
2019-02-04T19:07:32.672Z,-1.93
2019-02-04T19:10:05.291Z,-1.94
2019-02-04T19:12:37.959Z,-1.96
2019-02-04T19:15:14.865Z,-1.99
2019-02-04T19:17:46.390Z,-2.05
2019-02-04T19:20:23.310Z,-1.96
2019-02-04T19:22:54.312Z,-1.87
2019-02-04T19:25:25.616Z,-1.87
2019-02-04T19:28:07.208Z,-1.98
2019-02-04T19:30:44.520Z,-2.05
2019-02-04T19:33:17.325Z,-2.07
2019-02-04T19:35:48.530Z,-2.09
2019-02-04T19:38:19.815Z,-2.13
2019-02-04T19:40:50.752Z,-2.16
2019-02-04T19:43:21.715Z,-2.16
2019-02-04T19:45:52.829Z,-2.18
2019-02-04T19:48:23.890Z,-2.11
2019-02-04T19:50:54.913Z,-2.21
2019-02-04T19:53:25.993Z,-2.29
2019-02-04T19:55:57.500Z,-2.37
2019-02-04T19:58:28.612Z,-2.42
2019-02-04T20:00:59.774Z,-2.48
2019-02-04T20:03:30.905Z,-2.52
2019-02-04T20:06:03.580Z,-2.51
2019-02-04T20:08:34.985Z,-2.54
2019-02-04T20:11:06.288Z,-2.59
2019-02-04T20:13:37.276Z,-2.60
2019-02-04T20:16:08.361Z,-2.58
2019-02-04T20:18:39.411Z,-2.64
2019-02-04T20:21:10.912Z,-2.66
2019-02-04T20:23:41.839Z,-2.67
2019-02-04T20:26:12.938Z,-2.68
2019-02-04T20:28:43.946Z,-2.67
2019-02-04T20:31:15.022Z,-2.68
2019-02-04T20:33:46.117Z,-2.68
2019-02-04T20:36:17.167Z,-2.77
2019-02-04T20:38:48.239Z,-2.80
2019-02-04T20:41:19.410Z,-2.86
2019-02-04T20:43:50.736Z,-2.88
2019-02-04T20:46:21.786Z,-2.84
2019-02-04T20:48:53.041Z,-2.93
2019-02-04T20:51:24.043Z,-3.00
2019-02-04T20:53:55.101Z,-3.11
2019-02-04T20:56:26.254Z,-3.14
2019-02-04T20:58:57.293Z,-3.14
2019-02-04T21:01:28.629Z,-3.09
2019-02-04T21:03:59.530Z,-3.15
2019-02-04T21:06:30.480Z,-3.15
2019-02-04T21:09:01.443Z,-3.19
2019-02-04T21:11:32.502Z,-3.13
2019-02-04T21:14:03.580Z,-3.17
2019-02-04T21:16:34.620Z,-3.23
2019-02-04T21:19:06.052Z,-3.25
2019-02-04T21:21:37.236Z,-3.17
2019-02-04T21:24:08.327Z,-3.17
2019-02-04T21:26:39.439Z,-3.19
2019-02-04T21:29:10.457Z,-3.14
2019-02-04T21:31:41.501Z,-3.12
2019-02-04T21:34:12.593Z,-3.07
2019-02-04T21:36:43.777Z,-3.10
2019-02-04T21:39:14.877Z,-3.13
2019-02-04T21:41:45.903Z,-3.16
2019-02-04T21:44:17.059Z,-3.15
2019-02-04T21:46:48.037Z,-3.14
2019-02-04T21:49:19.049Z,-3.18
2019-02-04T21:51:50.085Z,-3.22
2019-02-04T21:54:21.542Z,-3.31
2019-02-04T21:56:53.350Z,-3.35
2019-02-04T21:59:24.410Z,-3.38
2019-02-04T22:01:55.386Z,-3.33
2019-02-04T22:04:26.442Z,-3.30
2019-02-04T22:06:57.568Z,-3.27
2019-02-04T22:09:28.970Z,-3.27
2019-02-04T22:11:59.954Z,-3.26
2019-02-04T22:14:31.052Z,-3.27
2019-02-04T22:17:01.981Z,-3.32
2019-02-04T22:19:33.058Z,-3.35
2019-02-04T22:22:04.591Z,-3.35
2019-02-04T22:24:36.630Z,-3.37
2019-02-04T22:27:07.713Z,-3.32
2019-02-04T22:29:38.595Z,-3.26
2019-02-04T22:32:09.685Z,-3.31
2019-02-04T22:34:40.996Z,-3.33
2019-02-04T22:37:11.998Z,-3.40
2019-02-04T22:39:43.053Z,-3.47
2019-02-04T22:42:14.066Z,-3.48
2019-02-04T22:44:45.032Z,-3.62
2019-02-04T22:47:16.391Z,-3.59
2019-02-04T22:49:47.414Z,-3.57
2019-02-04T22:52:18.637Z,-3.54
2019-02-04T22:54:49.651Z,-3.55
2019-02-04T22:57:20.774Z,-3.56
2019-02-04T22:59:52.201Z,-3.60
2019-02-04T23:02:23.185Z,-3.59
2019-02-04T23:04:54.379Z,-3.62
2019-02-04T23:07:25.355Z,-3.72
2019-02-04T23:09:57.177Z,-3.80
2019-02-04T23:12:29.211Z,-3.83
2019-02-04T23:15:00.342Z,-3.76
2019-02-04T23:17:31.328Z,-3.70
2019-02-04T23:20:02.349Z,-3.73
2019-02-04T23:22:33.353Z,-3.78
2019-02-04T23:25:07.078Z,-3.87
2019-02-04T23:27:38.131Z,-3.87
2019-02-04T23:30:12.057Z,-3.90
2019-02-04T23:32:43.337Z,-3.93
2019-02-04T23:35:14.687Z,-3.94
2019-02-04T23:37:49.898Z,-3.91
2019-02-04T23:40:21.418Z,-3.92
2019-02-04T23:42:52.444Z,-3.89
2019-02-04T23:45:23.585Z,-3.82
2019-02-04T23:47:54.615Z,-3.77
2019-02-04T23:50:25.756Z,-3.74
2019-02-04T23:52:56.749Z,-3.75
2019-02-04T23:55:27.766Z,-3.74
2019-02-04T23:57:58.945Z,-3.72
